sensor_id;sensor_type;location;lat;lon;timestamp;P1;durP1;ratioP1;P2;durP2;ratioP2
18789;SDS011;9523;42.650;23.386;2024-01-15T00:01:41;37.37;;;19.03;;
18789;SDS011;9523;42.650;23.386;2024-01-15T00:04:08;35.00;;;16.80;;
18789;SDS011;9523;42.650;23.386;2024-01-15T00:06:35;38.07;;;18.60;;
18789;SDS011;9523;42.650;23.386;2024-01-15T00:09:01;42.73;;;19.20;;
18789;SDS011;9523;42.650;23.386;2024-01-15T00:11:30;40.00;;;16.30;;
18789;SDS011;9523;42.650;23.386;2024-01-15T00:13:56;40.37;;;17.63;;
18789;SDS011;9523;42.650;23.386;2024-01-15T00:16:23;40.67;;;19.40;;
18789;SDS011;9523;42.650;23.386;2024-01-15T00:18:50;46.00;;;18.60;;
18789;SDS011;9523;42.650;23.386;2024-01-15T00:21:17;37.77;;;18.97;;
18789;SDS011;9523;42.650;23.386;2024-01-15T00:23:43;35.50;;;18.23;;
18789;SDS011;9523;42.650;23.386;2024-01-15T00:26:10;34.30;;;17.40;;
18789;SDS011;9523;42.650;23.386;2024-01-15T00:28:42;36.17;;;15.87;;
18789;SDS011;9523;42.650;23.386;2024-01-15T00:31:08;33.57;;;16.20;;
18789;SDS011;9523;42.650;23.386;2024-01-15T00:33:35;34.73;;;15.47;;
18789;SDS011;9523;42.650;23.386;2024-01-15T00:36:02;35.43;;;17.23;;
18789;SDS011;9523;42.650;23.386;2024-01-15T00:38:31;36.87;;;17.63;;
18789;SDS011;9523;42.650;23.386;2024-01-15T00:40:58;35.00;;;18.07;;
18789;SDS011;9523;42.650;23.386;2024-01-15T00:43:25;37.50;;;17.83;;
18789;SDS011;9523;42.650;23.386;2024-01-15T00:45:53;38.57;;;18.67;;
18789;SDS011;9523;42.650;23.386;2024-01-15T00:48:19;35.07;;;17.20;;
18789;SDS011;9523;42.650;23.386;2024-01-15T00:50:46;38.67;;;17.50;;
18789;SDS011;9523;42.650;23.386;2024-01-15T00:53:13;36.40;;;17.80;;
18789;SDS011;9523;42.650;23.386;2024-01-15T00:55:40;36.57;;;18.27;;
18789;SDS011;9523;42.650;23.386;2024-01-15T00:58:09;36.40;;;17.93;;
18789;SDS011;9523;42.650;23.386;2024-01-15T01:00:36;39.77;;;18.23;;
18789;SDS011;9523;42.650;23.386;2024-01-15T01:03:04;36.67;;;17.63;;
18789;SDS011;9523;42.650;23.386;2024-01-15T01:05:31;35.10;;;16.33;;
18789;SDS011;9523;42.650;23.386;2024-01-15T01:07:58;37.40;;;17.33;;
18789;SDS011;9523;42.650;23.386;2024-01-15T01:10:24;34.67;;;17.20;;
18789;SDS011;9523;42.650;23.386;2024-01-15T01:12:51;38.43;;;17.10;;
18789;SDS011;9523;42.650;23.386;2024-01-15T01:15:18;39.07;;;17.80;;
18789;SDS011;9523;42.650;23.386;2024-01-15T01:17:45;35.23;;;18.03;;
18789;SDS011;9523;42.650;23.386;2024-01-15T01:20:13;34.50;;;16.67;;
18789;SDS011;9523;42.650;23.386;2024-01-15T01:22:40;33.37;;;16.53;;
18789;SDS011;9523;42.650;23.386;2024-01-15T01:25:07;32.40;;;16.97;;
18789;SDS011;9523;42.650;23.386;2024-01-15T01:27:35;39.87;;;17.57;;
18789;SDS011;9523;42.650;23.386;2024-01-15T01:30:02;33.93;;;17.43;;
18789;SDS011;9523;42.650;23.386;2024-01-15T01:32:28;33.00;;;16.57;;
18789;SDS011;9523;42.650;23.386;2024-01-15T01:34:55;34.50;;;16.00;;
18789;SDS011;9523;42.650;23.386;2024-01-15T01:37:23;40.20;;;17.13;;
18789;SDS011;9523;42.650;23.386;2024-01-15T01:39:50;36.93;;;17.93;;
18789;SDS011;9523;42.650;23.386;2024-01-15T01:42:16;39.40;;;18.47;;
18789;SDS011;9523;42.650;23.386;2024-01-15T01:44:43;38.30;;;17.13;;
18789;SDS011;9523;42.650;23.386;2024-01-15T01:47:10;42.90;;;21.03;;
18789;SDS011;9523;42.650;23.386;2024-01-15T01:49:36;45.27;;;22.83;;
18789;SDS011;9523;42.650;23.386;2024-01-15T01:52:04;46.60;;;20.77;;
18789;SDS011;9523;42.650;23.386;2024-01-15T01:54:33;42.10;;;19.43;;
18789;SDS011;9523;42.650;23.386;2024-01-15T01:57:00;43.70;;;19.73;;
18789;SDS011;9523;42.650;23.386;2024-01-15T01:59:30;32.40;;;16.07;;
18789;SDS011;9523;42.650;23.386;2024-01-15T02:01:57;39.37;;;19.53;;
18789;SDS011;9523;42.650;23.386;2024-01-15T02:04:24;36.73;;;16.67;;
18789;SDS011;9523;42.650;23.386;2024-01-15T02:06:50;37.00;;;16.43;;
18789;SDS011;9523;42.650;23.386;2024-01-15T02:09:17;35.77;;;17.20;;
18789;SDS011;9523;42.650;23.386;2024-01-15T02:11:47;31.90;;;13.77;;
18789;SDS011;9523;42.650;23.386;2024-01-15T02:14:18;26.90;;;11.23;;
18789;SDS011;9523;42.650;23.386;2024-01-15T02:16:45;18.03;;;10.00;;
18789;SDS011;9523;42.650;23.386;2024-01-15T02:19:14;25.93;;;11.30;;
18789;SDS011;9523;42.650;23.386;2024-01-15T02:21:41;22.30;;;9.20;;
18789;SDS011;9523;42.650;23.386;2024-01-15T02:24:09;20.60;;;10.53;;
18789;SDS011;9523;42.650;23.386;2024-01-15T02:26:35;21.83;;;9.73;;
18789;SDS011;9523;42.650;23.386;2024-01-15T02:29:03;18.47;;;9.97;;
18789;SDS011;9523;42.650;23.386;2024-01-15T02:31:31;19.60;;;9.67;;
18789;SDS011;9523;42.650;23.386;2024-01-15T02:33:57;19.37;;;9.97;;
18789;SDS011;9523;42.650;23.386;2024-01-15T02:36:24;17.33;;;9.40;;
18789;SDS011;9523;42.650;23.386;2024-01-15T02:38:51;21.60;;;9.50;;
18789;SDS011;9523;42.650;23.386;2024-01-15T02:41:19;23.87;;;10.50;;
18789;SDS011;9523;42.650;23.386;2024-01-15T02:43:46;21.00;;;10.73;;
18789;SDS011;9523;42.650;23.386;2024-01-15T02:46:12;24.57;;;10.40;;
18789;SDS011;9523;42.650;23.386;2024-01-15T02:48:39;20.23;;;9.77;;
18789;SDS011;9523;42.650;23.386;2024-01-15T02:51:06;18.40;;;9.00;;
18789;SDS011;9523;42.650;23.386;2024-01-15T02:53:33;19.63;;;9.10;;
18789;SDS011;9523;42.650;23.386;2024-01-15T02:55:59;24.87;;;10.13;;
18789;SDS011;9523;42.650;23.386;2024-01-15T02:58:27;18.03;;;8.93;;
18789;SDS011;9523;42.650;23.386;2024-01-15T03:00:54;20.97;;;10.27;;
18789;SDS011;9523;42.650;23.386;2024-01-15T03:03:21;17.80;;;8.63;;
18789;SDS011;9523;42.650;23.386;2024-01-15T03:05:47;17.80;;;9.53;;
18789;SDS011;9523;42.650;23.386;2024-01-15T03:08:14;19.77;;;9.83;;
18789;SDS011;9523;42.650;23.386;2024-01-15T03:10:41;17.23;;;9.83;;
18789;SDS011;9523;42.650;23.386;2024-01-15T03:13:08;20.03;;;10.13;;
18789;SDS011;9523;42.650;23.386;2024-01-15T03:15:36;19.87;;;9.53;;
18789;SDS011;9523;42.650;23.386;2024-01-15T03:18:03;21.87;;;10.33;;
18789;SDS011;9523;42.650;23.386;2024-01-15T03:20:30;19.03;;;9.70;;
18789;SDS011;9523;42.650;23.386;2024-01-15T03:22:57;22.87;;;9.93;;
18789;SDS011;9523;42.650;23.386;2024-01-15T03:25:23;21.53;;;10.00;;
18789;SDS011;9523;42.650;23.386;2024-01-15T03:27:50;21.40;;;9.70;;
18789;SDS011;9523;42.650;23.386;2024-01-15T03:30:17;19.50;;;10.27;;
18789;SDS011;9523;42.650;23.386;2024-01-15T03:32:45;17.07;;;9.57;;
18789;SDS011;9523;42.650;23.386;2024-01-15T03:35:12;20.03;;;10.33;;
18789;SDS011;9523;42.650;23.386;2024-01-15T03:37:39;21.57;;;10.67;;
18789;SDS011;9523;42.650;23.386;2024-01-15T03:40:06;22.00;;;10.33;;
18789;SDS011;9523;42.650;23.386;2024-01-15T03:42:33;20.63;;;9.73;;
18789;SDS011;9523;42.650;23.386;2024-01-15T03:45:00;19.00;;;10.13;;
18789;SDS011;9523;42.650;23.386;2024-01-15T03:47:28;22.53;;;9.87;;
18789;SDS011;9523;42.650;23.386;2024-01-15T03:49:56;18.07;;;9.97;;
18789;SDS011;9523;42.650;23.386;2024-01-15T03:52:23;18.57;;;9.37;;
18789;SDS011;9523;42.650;23.386;2024-01-15T03:54:49;22.07;;;9.83;;
18789;SDS011;9523;42.650;23.386;2024-01-15T03:57:16;22.40;;;10.83;;
18789;SDS011;9523;42.650;23.386;2024-01-15T03:59:42;20.80;;;11.10;;
18789;SDS011;9523;42.650;23.386;2024-01-15T04:02:12;23.57;;;9.83;;
18789;SDS011;9523;42.650;23.386;2024-01-15T04:04:40;20.33;;;9.80;;
18789;SDS011;9523;42.650;23.386;2024-01-15T04:07:08;20.43;;;10.23;;
18789;SDS011;9523;42.650;23.386;2024-01-15T04:09:35;22.03;;;9.47;;
18789;SDS011;9523;42.650;23.386;2024-01-15T04:12:02;14.77;;;6.47;;
18789;SDS011;9523;42.650;23.386;2024-01-15T04:14:29;20.77;;;10.67;;
18789;SDS011;9523;42.650;23.386;2024-01-15T04:16:55;20.10;;;10.60;;
18789;SDS011;9523;42.650;23.386;2024-01-15T04:19:22;18.27;;;10.03;;
18789;SDS011;9523;42.650;23.386;2024-01-15T04:21:49;22.27;;;10.07;;
18789;SDS011;9523;42.650;23.386;2024-01-15T04:24:17;21.03;;;10.80;;
18789;SDS011;9523;42.650;23.386;2024-01-15T04:26:44;21.60;;;10.57;;
18789;SDS011;9523;42.650;23.386;2024-01-15T04:29:11;22.57;;;10.47;;
18789;SDS011;9523;42.650;23.386;2024-01-15T04:31:38;24.17;;;11.30;;
18789;SDS011;9523;42.650;23.386;2024-01-15T04:34:04;24.87;;;10.37;;
18789;SDS011;9523;42.650;23.386;2024-01-15T04:36:31;24.37;;;11.30;;
18789;SDS011;9523;42.650;23.386;2024-01-15T04:38:58;22.73;;;10.77;;
18789;SDS011;9523;42.650;23.386;2024-01-15T04:41:26;25.10;;;11.37;;
18789;SDS011;9523;42.650;23.386;2024-01-15T04:43:52;26.97;;;11.37;;
18789;SDS011;9523;42.650;23.386;2024-01-15T04:46:19;30.93;;;12.57;;
18789;SDS011;9523;42.650;23.386;2024-01-15T04:48:46;26.40;;;12.27;;
18789;SDS011;9523;42.650;23.386;2024-01-15T04:51:13;23.60;;;12.27;;
18789;SDS011;9523;42.650;23.386;2024-01-15T04:53:40;25.17;;;13.07;;
18789;SDS011;9523;42.650;23.386;2024-01-15T04:56:06;27.90;;;13.30;;
18789;SDS011;9523;42.650;23.386;2024-01-15T04:58:34;29.80;;;14.43;;
18789;SDS011;9523;42.650;23.386;2024-01-15T05:01:01;23.43;;;12.93;;
18789;SDS011;9523;42.650;23.386;2024-01-15T05:03:29;27.37;;;14.73;;
18789;SDS011;9523;42.650;23.386;2024-01-15T05:05:56;29.53;;;14.27;;
18789;SDS011;9523;42.650;23.386;2024-01-15T05:08:22;25.97;;;13.40;;
18789;SDS011;9523;42.650;23.386;2024-01-15T05:10:49;27.67;;;14.20;;
18789;SDS011;9523;42.650;23.386;2024-01-15T05:13:16;28.40;;;13.77;;
18789;SDS011;9523;42.650;23.386;2024-01-15T05:15:44;33.67;;;13.53;;
18789;SDS011;9523;42.650;23.386;2024-01-15T05:18:10;30.30;;;14.33;;
18789;SDS011;9523;42.650;23.386;2024-01-15T05:20:37;26.80;;;13.97;;
18789;SDS011;9523;42.650;23.386;2024-01-15T05:23:04;31.30;;;13.27;;
18789;SDS011;9523;42.650;23.386;2024-01-15T05:25:30;30.77;;;14.23;;
18789;SDS011;9523;42.650;23.386;2024-01-15T05:27:57;26.13;;;11.33;;
18789;SDS011;9523;42.650;23.386;2024-01-15T05:30:24;25.50;;;12.77;;
18789;SDS011;9523;42.650;23.386;2024-01-15T05:32:52;23.30;;;11.90;;
18789;SDS011;9523;42.650;23.386;2024-01-15T05:35:19;25.30;;;13.50;;
18789;SDS011;9523;42.650;23.386;2024-01-15T05:37:45;30.47;;;14.53;;
18789;SDS011;9523;42.650;23.386;2024-01-15T05:40:12;26.80;;;13.13;;
18789;SDS011;9523;42.650;23.386;2024-01-15T05:42:39;27.00;;;13.57;;
18789;SDS011;9523;42.650;23.386;2024-01-15T05:45:06;30.57;;;15.60;;
18789;SDS011;9523;42.650;23.386;2024-01-15T05:47:33;33.13;;;14.97;;
18789;SDS011;9523;42.650;23.386;2024-01-15T05:50:01;30.50;;;15.53;;
18789;SDS011;9523;42.650;23.386;2024-01-15T05:52:28;32.43;;;15.50;;
18789;SDS011;9523;42.650;23.386;2024-01-15T05:54:55;30.10;;;15.47;;
18789;SDS011;9523;42.650;23.386;2024-01-15T05:57:22;33.77;;;15.80;;
18789;SDS011;9523;42.650;23.386;2024-01-15T05:59:49;43.27;;;17.90;;
18789;SDS011;9523;42.650;23.386;2024-01-15T06:02:15;39.23;;;19.23;;
18789;SDS011;9523;42.650;23.386;2024-01-15T06:04:42;35.73;;;17.17;;
18789;SDS011;9523;42.650;23.386;2024-01-15T06:07:10;34.73;;;17.50;;
18789;SDS011;9523;42.650;23.386;2024-01-15T06:09:37;41.13;;;20.17;;
18789;SDS011;9523;42.650;23.386;2024-01-15T06:12:05;46.60;;;20.77;;
18789;SDS011;9523;42.650;23.386;2024-01-15T06:14:34;44.23;;;20.17;;
18789;SDS011;9523;42.650;23.386;2024-01-15T06:17:01;47.37;;;20.80;;
18789;SDS011;9523;42.650;23.386;2024-01-15T06:19:28;51.37;;;26.37;;
18789;SDS011;9523;42.650;23.386;2024-01-15T06:21:54;39.80;;;19.60;;
18789;SDS011;9523;42.650;23.386;2024-01-15T06:24:22;46.87;;;21.53;;
18789;SDS011;9523;42.650;23.386;2024-01-15T06:26:49;41.77;;;21.67;;
18789;SDS011;9523;42.650;23.386;2024-01-15T06:29:16;41.13;;;21.07;;
18789;SDS011;9523;42.650;23.386;2024-01-15T06:31:42;41.83;;;20.87;;
18789;SDS011;9523;42.650;23.386;2024-01-15T06:34:09;50.80;;;22.83;;
18789;SDS011;9523;42.650;23.386;2024-01-15T06:36:36;40.87;;;20.70;;
18789;SDS011;9523;42.650;23.386;2024-01-15T06:39:03;42.63;;;20.87;;
18789;SDS011;9523;42.650;23.386;2024-01-15T06:41:31;53.43;;;24.43;;
18789;SDS011;9523;42.650;23.386;2024-01-15T06:43:58;51.57;;;24.13;;
18789;SDS011;9523;42.650;23.386;2024-01-15T06:46:25;49.93;;;24.33;;
18789;SDS011;9523;42.650;23.386;2024-01-15T06:48:51;41.77;;;21.40;;
18789;SDS011;9523;42.650;23.386;2024-01-15T06:51:18;43.20;;;20.57;;
18789;SDS011;9523;42.650;23.386;2024-01-15T06:53:45;42.67;;;21.27;;
18789;SDS011;9523;42.650;23.386;2024-01-15T06:56:11;40.67;;;21.23;;
18789;SDS011;9523;42.650;23.386;2024-01-15T06:58:41;38.33;;;18.63;;
18789;SDS011;9523;42.650;23.386;2024-01-15T07:01:08;43.83;;;21.53;;
18789;SDS011;9523;42.650;23.386;2024-01-15T07:03:34;54.83;;;25.53;;
18789;SDS011;9523;42.650;23.386;2024-01-15T07:06:01;51.87;;;26.07;;
18789;SDS011;9523;42.650;23.386;2024-01-15T07:08:28;55.87;;;27.73;;
18789;SDS011;9523;42.650;23.386;2024-01-15T07:10:55;48.97;;;23.53;;
18789;SDS011;9523;42.650;23.386;2024-01-15T07:13:22;43.93;;;22.27;;
18789;SDS011;9523;42.650;23.386;2024-01-15T07:15:50;43.13;;;20.27;;
18789;SDS011;9523;42.650;23.386;2024-01-15T07:18:17;33.67;;;19.20;;
18789;SDS011;9523;42.650;23.386;2024-01-15T07:20:43;37.00;;;19.40;;
18789;SDS011;9523;42.650;23.386;2024-01-15T07:23:10;39.57;;;19.87;;
18789;SDS011;9523;42.650;23.386;2024-01-15T07:25:37;44.37;;;21.40;;
18789;SDS011;9523;42.650;23.386;2024-01-15T07:28:04;43.23;;;22.87;;
18789;SDS011;9523;42.650;23.386;2024-01-15T07:30:31;46.20;;;22.23;;
18789;SDS011;9523;42.650;23.386;2024-01-15T07:32:59;42.87;;;21.67;;
18789;SDS011;9523;42.650;23.386;2024-01-15T07:35:25;46.03;;;21.30;;
18789;SDS011;9523;42.650;23.386;2024-01-15T07:37:52;51.07;;;25.07;;
18789;SDS011;9523;42.650;23.386;2024-01-15T07:40:19;49.70;;;26.40;;
18789;SDS011;9523;42.650;23.386;2024-01-15T07:42:46;49.37;;;24.57;;
18789;SDS011;9523;42.650;23.386;2024-01-15T07:45:13;44.20;;;22.93;;
18789;SDS011;9523;42.650;23.386;2024-01-15T07:47:39;44.30;;;23.07;;
18789;SDS011;9523;42.650;23.386;2024-01-15T07:50:08;44.80;;;21.93;;
18789;SDS011;9523;42.650;23.386;2024-01-15T07:52:35;50.40;;;25.43;;
18789;SDS011;9523;42.650;23.386;2024-01-15T07:55:01;48.93;;;24.17;;
18789;SDS011;9523;42.650;23.386;2024-01-15T07:57:30;46.53;;;19.63;;
18789;SDS011;9523;42.650;23.386;2024-01-15T07:59:57;36.00;;;20.13;;
18789;SDS011;9523;42.650;23.386;2024-01-15T08:02:24;46.57;;;22.03;;
18789;SDS011;9523;42.650;23.386;2024-01-15T08:04:50;43.20;;;18.53;;
18789;SDS011;9523;42.650;23.386;2024-01-15T08:07:18;41.87;;;19.70;;
18789;SDS011;9523;42.650;23.386;2024-01-15T08:09:45;16.90;;;9.43;;
18789;SDS011;9523;42.650;23.386;2024-01-15T08:12:14;42.20;;;21.37;;
18789;SDS011;9523;42.650;23.386;2024-01-15T08:14:40;43.20;;;19.33;;
18789;SDS011;9523;42.650;23.386;2024-01-15T08:17:08;34.23;;;17.30;;
18789;SDS011;9523;42.650;23.386;2024-01-15T08:19:34;41.70;;;17.93;;
18789;SDS011;9523;42.650;23.386;2024-01-15T08:22:02;33.30;;;16.03;;
18789;SDS011;9523;42.650;23.386;2024-01-15T08:24:30;27.57;;;14.33;;
18789;SDS011;9523;42.650;23.386;2024-01-15T08:26:57;22.53;;;10.73;;
18789;SDS011;9523;42.650;23.386;2024-01-15T08:29:24;33.43;;;14.73;;
18789;SDS011;9523;42.650;23.386;2024-01-15T08:31:51;25.33;;;10.90;;
18789;SDS011;9523;42.650;23.386;2024-01-15T08:34:17;25.50;;;13.00;;
18789;SDS011;9523;42.650;23.386;2024-01-15T08:36:44;23.60;;;11.77;;
18789;SDS011;9523;42.650;23.386;2024-01-15T08:39:11;27.43;;;12.60;;
18789;SDS011;9523;42.650;23.386;2024-01-15T08:41:39;32.27;;;12.53;;
18789;SDS011;9523;42.650;23.386;2024-01-15T08:44:06;28.87;;;13.37;;
18789;SDS011;9523;42.650;23.386;2024-01-15T08:46:33;31.87;;;15.03;;
18789;SDS011;9523;42.650;23.386;2024-01-15T08:48:59;28.53;;;15.70;;
18789;SDS011;9523;42.650;23.386;2024-01-15T08:51:26;29.97;;;14.13;;
18789;SDS011;9523;42.650;23.386;2024-01-15T08:53:53;29.63;;;14.17;;
18789;SDS011;9523;42.650;23.386;2024-01-15T08:56:19;26.80;;;14.13;;
18789;SDS011;9523;42.650;23.386;2024-01-15T08:58:48;32.97;;;15.17;;
18789;SDS011;9523;42.650;23.386;2024-01-15T09:01:15;26.77;;;14.20;;
18789;SDS011;9523;42.650;23.386;2024-01-15T09:03:44;35.80;;;15.37;;
18789;SDS011;9523;42.650;23.386;2024-01-15T09:06:13;38.73;;;18.20;;
18789;SDS011;9523;42.650;23.386;2024-01-15T09:08:40;48.33;;;22.30;;
18789;SDS011;9523;42.650;23.386;2024-01-15T09:11:07;65.07;;;31.73;;
18789;SDS011;9523;42.650;23.386;2024-01-15T09:13:34;77.87;;;36.47;;
18789;SDS011;9523;42.650;23.386;2024-01-15T09:16:02;77.93;;;40.60;;
18789;SDS011;9523;42.650;23.386;2024-01-15T09:18:29;93.10;;;40.97;;
18789;SDS011;9523;42.650;23.386;2024-01-15T09:20:55;83.57;;;43.00;;
18789;SDS011;9523;42.650;23.386;2024-01-15T09:23:22;81.03;;;41.00;;
18789;SDS011;9523;42.650;23.386;2024-01-15T09:25:51;67.93;;;37.40;;
18789;SDS011;9523;42.650;23.386;2024-01-15T09:28:18;64.90;;;32.00;;
18789;SDS011;9523;42.650;23.386;2024-01-15T09:30:45;60.70;;;31.90;;
18789;SDS011;9523;42.650;23.386;2024-01-15T09:33:14;49.57;;;27.97;;
18789;SDS011;9523;42.650;23.386;2024-01-15T09:35:40;54.23;;;26.73;;
18789;SDS011;9523;42.650;23.386;2024-01-15T09:38:07;58.77;;;29.00;;
18789;SDS011;9523;42.650;23.386;2024-01-15T09:40:34;58.00;;;29.10;;
18789;SDS011;9523;42.650;23.386;2024-01-15T09:43:04;57.00;;;28.33;;
18789;SDS011;9523;42.650;23.386;2024-01-15T09:45:31;56.00;;;27.60;;
18789;SDS011;9523;42.650;23.386;2024-01-15T09:47:58;59.70;;;26.97;;
18789;SDS011;9523;42.650;23.386;2024-01-15T09:50:29;48.63;;;26.60;;
18789;SDS011;9523;42.650;23.386;2024-01-15T09:52:57;65.00;;;29.70;;
18789;SDS011;9523;42.650;23.386;2024-01-15T09:55:24;66.07;;;27.83;;
18789;SDS011;9523;42.650;23.386;2024-01-15T09:57:51;51.73;;;25.80;;
18789;SDS011;9523;42.650;23.386;2024-01-15T10:00:18;53.37;;;26.33;;
18789;SDS011;9523;42.650;23.386;2024-01-15T10:02:45;40.13;;;19.87;;
18789;SDS011;9523;42.650;23.386;2024-01-15T10:05:12;42.70;;;20.80;;
18789;SDS011;9523;42.650;23.386;2024-01-15T10:07:40;42.63;;;19.23;;
18789;SDS011;9523;42.650;23.386;2024-01-15T10:10:07;74.20;;;24.23;;
18789;SDS011;9523;42.650;23.386;2024-01-15T10:12:33;33.77;;;16.47;;
18789;SDS011;9523;42.650;23.386;2024-01-15T10:15:01;43.97;;;20.80;;
18789;SDS011;9523;42.650;23.386;2024-01-15T10:17:27;42.40;;;20.97;;
18789;SDS011;9523;42.650;23.386;2024-01-15T10:19:56;40.40;;;19.50;;
18789;SDS011;9523;42.650;23.386;2024-01-15T10:22:23;37.67;;;17.77;;
18789;SDS011;9523;42.650;23.386;2024-01-15T10:24:51;37.67;;;18.70;;
18789;SDS011;9523;42.650;23.386;2024-01-15T10:27:18;40.27;;;19.47;;
18789;SDS011;9523;42.650;23.386;2024-01-15T10:29:44;39.90;;;19.53;;
18789;SDS011;9523;42.650;23.386;2024-01-15T10:32:11;44.07;;;19.80;;
18789;SDS011;9523;42.650;23.386;2024-01-15T10:34:38;38.10;;;19.43;;
18789;SDS011;9523;42.650;23.386;2024-01-15T10:37:07;41.03;;;19.73;;
18789;SDS011;9523;42.650;23.386;2024-01-15T10:39:34;31.70;;;18.33;;
18789;SDS011;9523;42.650;23.386;2024-01-15T10:42:02;33.57;;;17.90;;
18789;SDS011;9523;42.650;23.386;2024-01-15T10:44:29;31.03;;;16.40;;
18789;SDS011;9523;42.650;23.386;2024-01-15T10:46:56;27.20;;;15.00;;
18789;SDS011;9523;42.650;23.386;2024-01-15T10:49:23;28.20;;;14.80;;
18789;SDS011;9523;42.650;23.386;2024-01-15T10:51:52;27.30;;;13.03;;
18789;SDS011;9523;42.650;23.386;2024-01-15T10:54:19;27.17;;;13.47;;
18789;SDS011;9523;42.650;23.386;2024-01-15T10:56:46;21.83;;;13.33;;
18789;SDS011;9523;42.650;23.386;2024-01-15T10:59:14;29.13;;;15.23;;
18789;SDS011;9523;42.650;23.386;2024-01-15T11:01:41;29.73;;;16.97;;
18789;SDS011;9523;42.650;23.386;2024-01-15T11:04:08;34.77;;;19.33;;
18789;SDS011;9523;42.650;23.386;2024-01-15T11:06:41;34.60;;;19.40;;
18789;SDS011;9523;42.650;23.386;2024-01-15T11:09:08;38.53;;;18.87;;
18789;SDS011;9523;42.650;23.386;2024-01-15T11:11:35;38.10;;;19.13;;
18789;SDS011;9523;42.650;23.386;2024-01-15T11:14:02;41.07;;;19.70;;
18789;SDS011;9523;42.650;23.386;2024-01-15T11:16:53;37.67;;;20.87;;
18789;SDS011;9523;42.650;23.386;2024-01-15T11:19:19;36.90;;;21.47;;
18789;SDS011;9523;42.650;23.386;2024-01-15T11:21:46;42.00;;;22.07;;
18789;SDS011;9523;42.650;23.386;2024-01-15T11:24:32;40.27;;;20.93;;
18789;SDS011;9523;42.650;23.386;2024-01-15T11:26:59;44.20;;;21.47;;
18789;SDS011;9523;42.650;23.386;2024-01-15T11:29:29;51.50;;;23.07;;
18789;SDS011;9523;42.650;23.386;2024-01-15T11:31:58;43.60;;;22.47;;
18789;SDS011;9523;42.650;23.386;2024-01-15T11:37:12;51.27;;;22.60;;
18789;SDS011;9523;42.650;23.386;2024-01-15T11:39:39;40.50;;;22.13;;
18789;SDS011;9523;42.650;23.386;2024-01-15T11:42:06;43.90;;;22.63;;
18789;SDS011;9523;42.650;23.386;2024-01-15T11:44:32;41.83;;;21.00;;
18789;SDS011;9523;42.650;23.386;2024-01-15T11:47:01;40.47;;;21.03;;
18789;SDS011;9523;42.650;23.386;2024-01-15T11:49:32;43.00;;;22.00;;
18789;SDS011;9523;42.650;23.386;2024-01-15T11:52:06;40.97;;;21.07;;
18789;SDS011;9523;42.650;23.386;2024-01-15T11:54:33;39.33;;;20.27;;
18789;SDS011;9523;42.650;23.386;2024-01-15T11:57:04;45.33;;;20.70;;
18789;SDS011;9523;42.650;23.386;2024-01-15T11:59:30;35.27;;;20.60;;
18789;SDS011;9523;42.650;23.386;2024-01-15T12:02:10;39.17;;;20.80;;
18789;SDS011;9523;42.650;23.386;2024-01-15T12:04:38;40.97;;;19.73;;
18789;SDS011;9523;42.650;23.386;2024-01-15T12:07:05;35.37;;;19.37;;
18789;SDS011;9523;42.650;23.386;2024-01-15T12:09:34;34.97;;;19.90;;
18789;SDS011;9523;42.650;23.386;2024-01-15T12:12:02;40.47;;;18.97;;
18789;SDS011;9523;42.650;23.386;2024-01-15T12:14:31;35.90;;;18.93;;
18789;SDS011;9523;42.650;23.386;2024-01-15T12:16:59;34.30;;;18.27;;
18789;SDS011;9523;42.650;23.386;2024-01-15T12:19:27;33.13;;;18.37;;
18789;SDS011;9523;42.650;23.386;2024-01-15T12:21:54;31.97;;;18.23;;
18789;SDS011;9523;42.650;23.386;2024-01-15T12:24:21;38.93;;;18.27;;
18789;SDS011;9523;42.650;23.386;2024-01-15T12:26:48;35.27;;;19.90;;
18789;SDS011;9523;42.650;23.386;2024-01-15T12:29:17;42.03;;;21.53;;
18789;SDS011;9523;42.650;23.386;2024-01-15T12:31:46;36.40;;;20.00;;
18789;SDS011;9523;42.650;23.386;2024-01-15T12:34:13;43.57;;;21.33;;
18789;SDS011;9523;42.650;23.386;2024-01-15T12:36:43;48.37;;;19.90;;
18789;SDS011;9523;42.650;23.386;2024-01-15T12:39:11;35.27;;;19.27;;
18789;SDS011;9523;42.650;23.386;2024-01-15T12:41:38;30.60;;;18.77;;
18789;SDS011;9523;42.650;23.386;2024-01-15T12:44:05;31.30;;;17.93;;
18789;SDS011;9523;42.650;23.386;2024-01-15T12:46:30;32.77;;;17.97;;
18789;SDS011;9523;42.650;23.386;2024-01-15T12:48:57;32.37;;;19.27;;
18789;SDS011;9523;42.650;23.386;2024-01-15T12:51:24;34.07;;;19.00;;
18789;SDS011;9523;42.650;23.386;2024-01-15T12:53:53;41.93;;;20.67;;
18789;SDS011;9523;42.650;23.386;2024-01-15T12:56:20;39.97;;;20.30;;
18789;SDS011;9523;42.650;23.386;2024-01-15T12:58:46;36.00;;;20.30;;
18789;SDS011;9523;42.650;23.386;2024-01-15T13:01:13;31.77;;;18.90;;
18789;SDS011;9523;42.650;23.386;2024-01-15T13:03:40;35.63;;;20.67;;
18789;SDS011;9523;42.650;23.386;2024-01-15T13:06:06;35.87;;;19.17;;
18789;SDS011;9523;42.650;23.386;2024-01-15T13:08:33;33.93;;;17.30;;
18789;SDS011;9523;42.650;23.386;2024-01-15T13:11:01;56.67;;;33.97;;
18789;SDS011;9523;42.650;23.386;2024-01-15T13:13:28;33.87;;;18.27;;
18789;SDS011;9523;42.650;23.386;2024-01-15T13:15:55;33.23;;;17.27;;
18789;SDS011;9523;42.650;23.386;2024-01-15T13:18:22;35.33;;;19.17;;
18789;SDS011;9523;42.650;23.386;2024-01-15T13:20:49;36.37;;;18.23;;
18789;SDS011;9523;42.650;23.386;2024-01-15T13:23:15;37.67;;;18.87;;
18789;SDS011;9523;42.650;23.386;2024-01-15T13:25:42;39.67;;;19.90;;
18789;SDS011;9523;42.650;23.386;2024-01-15T13:28:10;39.23;;;19.13;;
18789;SDS011;9523;42.650;23.386;2024-01-15T13:30:38;40.73;;;20.53;;
18789;SDS011;9523;42.650;23.386;2024-01-15T13:33:04;36.93;;;19.33;;
18789;SDS011;9523;42.650;23.386;2024-01-15T13:35:31;36.63;;;19.17;;
18789;SDS011;9523;42.650;23.386;2024-01-15T13:37:58;32.90;;;17.87;;
18789;SDS011;9523;42.650;23.386;2024-01-15T13:40:25;40.20;;;19.83;;
18789;SDS011;9523;42.650;23.386;2024-01-15T13:42:52;34.90;;;18.87;;
18789;SDS011;9523;42.650;23.386;2024-01-15T13:45:21;42.57;;;20.03;;
18789;SDS011;9523;42.650;23.386;2024-01-15T13:47:49;34.60;;;19.00;;
18789;SDS011;9523;42.650;23.386;2024-01-15T13:50:15;35.33;;;18.13;;
18789;SDS011;9523;42.650;23.386;2024-01-15T13:52:42;32.63;;;18.50;;
18789;SDS011;9523;42.650;23.386;2024-01-15T13:55:09;32.93;;;18.93;;
18789;SDS011;9523;42.650;23.386;2024-01-15T13:57:36;37.37;;;19.10;;
18789;SDS011;9523;42.650;23.386;2024-01-15T14:00:03;31.13;;;17.07;;
18789;SDS011;9523;42.650;23.386;2024-01-15T14:02:36;31.23;;;18.00;;
18789;SDS011;9523;42.650;23.386;2024-01-15T14:05:03;37.97;;;17.93;;
18789;SDS011;9523;42.650;23.386;2024-01-15T14:07:29;29.90;;;17.80;;
18789;SDS011;9523;42.650;23.386;2024-01-15T14:09:58;40.87;;;18.40;;
18789;SDS011;9523;42.650;23.386;2024-01-15T14:12:25;34.23;;;17.37;;
18789;SDS011;9523;42.650;23.386;2024-01-15T14:14:52;35.87;;;17.77;;
18789;SDS011;9523;42.650;23.386;2024-01-15T14:17:19;37.90;;;17.80;;
18789;SDS011;9523;42.650;23.386;2024-01-15T14:19:47;36.43;;;17.13;;
18789;SDS011;9523;42.650;23.386;2024-01-15T14:22:13;33.03;;;17.07;;
18789;SDS011;9523;42.650;23.386;2024-01-15T14:24:40;31.63;;;17.90;;
18789;SDS011;9523;42.650;23.386;2024-01-15T14:27:07;37.27;;;18.10;;